sensor_id;sensor_type;location;lat;lon;timestamp;P1;durP1;ratioP1;P2;durP2;ratioP2
24813;SDS011;12904;50.088;11.414;2023-03-24T00:01:01;3.22;;;2.53;;
24813;SDS011;12904;50.088;11.414;2023-03-24T00:03:28;2.75;;;2.30;;
24813;SDS011;12904;50.088;11.414;2023-03-24T00:05:58;6.50;;;2.30;;
24813;SDS011;12904;50.088;11.414;2023-03-24T00:08:33;3.10;;;2.63;;
24813;SDS011;12904;50.088;11.414;2023-03-24T00:11:01;3.67;;;2.20;;
24813;SDS011;12904;50.088;11.414;2023-03-24T00:13:28;3.25;;;2.83;;
24813;SDS011;12904;50.088;11.414;2023-03-24T00:15:56;3.60;;;2.42;;
24813;SDS011;12904;50.088;11.414;2023-03-24T00:18:22;3.30;;;2.65;;
24813;SDS011;12904;50.088;11.414;2023-03-24T00:20:53;4.13;;;2.90;;
24813;SDS011;12904;50.088;11.414;2023-03-24T00:23:24;3.10;;;2.20;;
24813;SDS011;12904;50.088;11.414;2023-03-24T00:26:06;4.22;;;2.97;;
24813;SDS011;12904;50.088;11.414;2023-03-24T00:28:36;5.22;;;2.75;;
24813;SDS011;12904;50.088;11.414;2023-03-24T00:31:03;2.95;;;2.50;;
24813;SDS011;12904;50.088;11.414;2023-03-24T00:33:32;3.00;;;2.25;;
24813;SDS011;12904;50.088;11.414;2023-03-24T00:36:00;2.90;;;2.35;;
24813;SDS011;12904;50.088;11.414;2023-03-24T00:38:27;6.13;;;2.50;;
24813;SDS011;12904;50.088;11.414;2023-03-24T00:40:53;3.05;;;2.40;;
24813;SDS011;12904;50.088;11.414;2023-03-24T00:43:19;4.13;;;2.40;;
24813;SDS011;12904;50.088;11.414;2023-03-24T00:45:45;2.47;;;2.20;;
24813;SDS011;12904;50.088;11.414;2023-03-24T00:48:12;3.97;;;2.33;;
24813;SDS011;12904;50.088;11.414;2023-03-24T00:50:38;2.80;;;2.40;;
24813;SDS011;12904;50.088;11.414;2023-03-24T00:53:09;3.10;;;2.72;;
24813;SDS011;12904;50.088;11.414;2023-03-24T00:55:34;4.05;;;2.67;;
24813;SDS011;12904;50.088;11.414;2023-03-24T00:58:02;3.88;;;2.92;;
24813;SDS011;12904;50.088;11.414;2023-03-24T01:00:28;3.05;;;2.47;;
24813;SDS011;12904;50.088;11.414;2023-03-24T01:02:55;4.78;;;2.50;;
24813;SDS011;12904;50.088;11.414;2023-03-24T01:05:22;5.90;;;2.90;;
24813;SDS011;12904;50.088;11.414;2023-03-24T01:07:52;3.28;;;2.85;;
24813;SDS011;12904;50.088;11.414;2023-03-24T01:10:21;5.28;;;2.83;;
24813;SDS011;12904;50.088;11.414;2023-03-24T01:12:51;4.10;;;3.05;;
24813;SDS011;12904;50.088;11.414;2023-03-24T01:15:19;3.70;;;3.13;;
24813;SDS011;12904;50.088;11.414;2023-03-24T01:17:47;4.05;;;2.63;;
24813;SDS011;12904;50.088;11.414;2023-03-24T01:20:13;3.83;;;2.83;;
24813;SDS011;12904;50.088;11.414;2023-03-24T01:22:40;3.85;;;2.50;;
24813;SDS011;12904;50.088;11.414;2023-03-24T01:25:15;2.63;;;2.42;;
24813;SDS011;12904;50.088;11.414;2023-03-24T01:27:44;6.97;;;2.72;;
24813;SDS011;12904;50.088;11.414;2023-03-24T01:30:11;3.25;;;2.58;;
24813;SDS011;12904;50.088;11.414;2023-03-24T01:32:39;2.90;;;2.60;;
24813;SDS011;12904;50.088;11.414;2023-03-24T01:35:06;3.78;;;2.70;;
24813;SDS011;12904;50.088;11.414;2023-03-24T01:37:31;3.15;;;2.85;;
24813;SDS011;12904;50.088;11.414;2023-03-24T01:39:57;4.03;;;3.25;;
24813;SDS011;12904;50.088;11.414;2023-03-24T01:42:24;4.55;;;3.15;;
24813;SDS011;12904;50.088;11.414;2023-03-24T01:44:53;4.93;;;2.83;;
24813;SDS011;12904;50.088;11.414;2023-03-24T01:47:21;3.28;;;2.95;;
24813;SDS011;12904;50.088;11.414;2023-03-24T01:49:57;4.13;;;2.67;;
24813;SDS011;12904;50.088;11.414;2023-03-24T01:52:30;3.03;;;2.40;;
24813;SDS011;12904;50.088;11.414;2023-03-24T01:55:10;3.35;;;2.95;;
24813;SDS011;12904;50.088;11.414;2023-03-24T01:57:44;4.03;;;3.40;;
24813;SDS011;12904;50.088;11.414;2023-03-24T02:00:14;3.65;;;3.10;;
24813;SDS011;12904;50.088;11.414;2023-03-24T02:02:44;4.97;;;3.47;;
24813;SDS011;12904;50.088;11.414;2023-03-24T02:05:18;5.57;;;3.60;;
24813;SDS011;12904;50.088;11.414;2023-03-24T02:10:17;4.63;;;3.30;;
24813;SDS011;12904;50.088;11.414;2023-03-24T02:12:44;4.25;;;3.70;;
24813;SDS011;12904;50.088;11.414;2023-03-24T02:15:12;3.92;;;3.63;;
24813;SDS011;12904;50.088;11.414;2023-03-24T02:25:59;4.80;;;4.30;;
24813;SDS011;12904;50.088;11.414;2023-03-24T02:28:52;8.45;;;4.55;;
24813;SDS011;12904;50.088;11.414;2023-03-24T02:40:25;5.18;;;4.50;;
24813;SDS011;12904;50.088;11.414;2023-03-24T02:45:35;5.07;;;4.35;;
24813;SDS011;12904;50.088;11.414;2023-03-24T02:48:21;4.05;;;3.38;;
24813;SDS011;12904;50.088;11.414;2023-03-24T02:53:38;4.43;;;4.03;;
24813;SDS011;12904;50.088;11.414;2023-03-24T02:59:16;4.50;;;3.67;;
24813;SDS011;12904;50.088;11.414;2023-03-24T03:01:51;4.18;;;3.72;;
24813;SDS011;12904;50.088;11.414;2023-03-24T03:04:27;7.10;;;4.55;;
24813;SDS011;12904;50.088;11.414;2023-03-24T03:07:04;4.63;;;4.05;;
24813;SDS011;12904;50.088;11.414;2023-03-24T03:09:38;4.55;;;3.92;;
24813;SDS011;12904;50.088;11.414;2023-03-24T03:14:37;6.47;;;4.03;;
24813;SDS011;12904;50.088;11.414;2023-03-24T03:17:13;4.78;;;4.28;;
24813;SDS011;12904;50.088;11.414;2023-03-24T03:19:44;5.05;;;4.63;;
24813;SDS011;12904;50.088;11.414;2023-03-24T03:22:20;5.28;;;4.72;;
24813;SDS011;12904;50.088;11.414;2023-03-24T03:24:49;5.60;;;4.28;;
24813;SDS011;12904;50.088;11.414;2023-03-24T03:27:35;4.90;;;4.43;;
24813;SDS011;12904;50.088;11.414;2023-03-24T03:30:07;4.93;;;4.43;;
24813;SDS011;12904;50.088;11.414;2023-03-24T03:32:38;4.32;;;4.00;;
24813;SDS011;12904;50.088;11.414;2023-03-24T03:35:11;5.50;;;4.38;;
24813;SDS011;12904;50.088;11.414;2023-03-24T03:40:12;4.40;;;4.00;;
24813;SDS011;12904;50.088;11.414;2023-03-24T03:42:43;5.85;;;4.60;;
24813;SDS011;12904;50.088;11.414;2023-03-24T03:45:09;5.13;;;4.47;;
24813;SDS011;12904;50.088;11.414;2023-03-24T03:47:36;4.72;;;4.20;;
24813;SDS011;12904;50.088;11.414;2023-03-24T03:50:02;6.00;;;4.28;;
24813;SDS011;12904;50.088;11.414;2023-03-24T03:52:29;4.68;;;4.28;;
24813;SDS011;12904;50.088;11.414;2023-03-24T03:54:55;5.60;;;4.90;;
24813;SDS011;12904;50.088;11.414;2023-03-24T03:57:22;6.38;;;3.97;;
24813;SDS011;12904;50.088;11.414;2023-03-24T03:59:48;5.65;;;4.20;;
24813;SDS011;12904;50.088;11.414;2023-03-24T04:05:09;4.45;;;3.88;;
24813;SDS011;12904;50.088;11.414;2023-03-24T04:16:09;4.40;;;4.00;;
24813;SDS011;12904;50.088;11.414;2023-03-24T04:21:45;6.30;;;4.57;;
24813;SDS011;12904;50.088;11.414;2023-03-24T04:24:42;4.43;;;4.03;;
24813;SDS011;12904;50.088;11.414;2023-03-24T04:27:27;4.85;;;4.45;;
24813;SDS011;12904;50.088;11.414;2023-03-24T04:32:54;5.03;;;4.53;;
24813;SDS011;12904;50.088;11.414;2023-03-24T04:35:33;6.03;;;4.97;;
24813;SDS011;12904;50.088;11.414;2023-03-24T04:38:15;7.20;;;4.43;;
24813;SDS011;12904;50.088;11.414;2023-03-24T04:40:47;5.35;;;4.35;;
24813;SDS011;12904;50.088;11.414;2023-03-24T04:43:14;5.65;;;5.13;;
24813;SDS011;12904;50.088;11.414;2023-03-24T04:45:43;6.03;;;5.43;;
24813;SDS011;12904;50.088;11.414;2023-03-24T04:48:13;6.32;;;5.55;;
24813;SDS011;12904;50.088;11.414;2023-03-24T04:50:42;7.45;;;5.57;;
24813;SDS011;12904;50.088;11.414;2023-03-24T04:53:10;7.28;;;5.90;;
24813;SDS011;12904;50.088;11.414;2023-03-24T04:58:41;6.25;;;5.45;;
24813;SDS011;12904;50.088;11.414;2023-03-24T05:01:07;5.72;;;5.13;;
24813;SDS011;12904;50.088;11.414;2023-03-24T05:03:33;7.35;;;5.43;;
24813;SDS011;12904;50.088;11.414;2023-03-24T05:06:02;5.47;;;4.97;;
24813;SDS011;12904;50.088;11.414;2023-03-24T05:08:29;5.80;;;5.13;;
24813;SDS011;12904;50.088;11.414;2023-03-24T05:10:55;5.00;;;4.50;;
24813;SDS011;12904;50.088;11.414;2023-03-24T05:13:21;5.35;;;4.85;;
24813;SDS011;12904;50.088;11.414;2023-03-24T05:15:47;5.78;;;4.90;;
24813;SDS011;12904;50.088;11.414;2023-03-24T05:18:12;6.03;;;4.88;;
24813;SDS011;12904;50.088;11.414;2023-03-24T05:20:38;6.68;;;5.50;;
24813;SDS011;12904;50.088;11.414;2023-03-24T05:23:04;6.05;;;5.18;;
24813;SDS011;12904;50.088;11.414;2023-03-24T05:25:30;5.85;;;5.25;;
24813;SDS011;12904;50.088;11.414;2023-03-24T05:27:56;5.13;;;4.25;;
24813;SDS011;12904;50.088;11.414;2023-03-24T05:30:21;5.95;;;4.72;;
24813;SDS011;12904;50.088;11.414;2023-03-24T05:32:47;5.00;;;4.50;;
24813;SDS011;12904;50.088;11.414;2023-03-24T05:35:13;11.77;;;5.32;;
24813;SDS011;12904;50.088;11.414;2023-03-24T05:37:39;7.13;;;4.65;;
24813;SDS011;12904;50.088;11.414;2023-03-24T05:40:05;5.50;;;4.85;;
24813;SDS011;12904;50.088;11.414;2023-03-24T05:42:31;4.90;;;4.50;;
24813;SDS011;12904;50.088;11.414;2023-03-24T05:44:57;7.70;;;4.72;;
24813;SDS011;12904;50.088;11.414;2023-03-24T05:47:22;6.10;;;5.50;;
24813;SDS011;12904;50.088;11.414;2023-03-24T05:49:48;7.35;;;5.47;;
24813;SDS011;12904;50.088;11.414;2023-03-24T05:52:15;5.53;;;4.93;;
24813;SDS011;12904;50.088;11.414;2023-03-24T05:54:41;5.38;;;4.88;;
24813;SDS011;12904;50.088;11.414;2023-03-24T05:57:09;4.93;;;4.43;;
24813;SDS011;12904;50.088;11.414;2023-03-24T05:59:40;5.80;;;4.75;;
24813;SDS011;12904;50.088;11.414;2023-03-24T06:02:06;4.93;;;4.43;;
24813;SDS011;12904;50.088;11.414;2023-03-24T06:04:32;5.57;;;5.07;;
24813;SDS011;12904;50.088;11.414;2023-03-24T06:06:58;5.47;;;4.50;;
24813;SDS011;12904;50.088;11.414;2023-03-24T06:09:27;6.03;;;5.32;;
24813;SDS011;12904;50.088;11.414;2023-03-24T06:11:57;7.72;;;5.55;;
24813;SDS011;12904;50.088;11.414;2023-03-24T06:14:23;5.88;;;5.13;;
24813;SDS011;12904;50.088;11.414;2023-03-24T06:16:48;5.32;;;4.20;;
24813;SDS011;12904;50.088;11.414;2023-03-24T06:19:14;5.90;;;5.03;;
24813;SDS011;12904;50.088;11.414;2023-03-24T06:21:41;5.18;;;4.70;;
24813;SDS011;12904;50.088;11.414;2023-03-24T06:24:08;5.88;;;4.32;;
24813;SDS011;12904;50.088;11.414;2023-03-24T06:26:38;4.97;;;4.50;;
24813;SDS011;12904;50.088;11.414;2023-03-24T06:29:06;6.05;;;5.03;;
24813;SDS011;12904;50.088;11.414;2023-03-24T06:31:32;5.43;;;4.97;;
24813;SDS011;12904;50.088;11.414;2023-03-24T06:33:59;5.55;;;4.43;;
24813;SDS011;12904;50.088;11.414;2023-03-24T06:36:25;5.72;;;5.22;;
24813;SDS011;12904;50.088;11.414;2023-03-24T06:38:51;11.88;;;5.32;;
24813;SDS011;12904;50.088;11.414;2023-03-24T06:41:17;6.10;;;4.10;;
24813;SDS011;12904;50.088;11.414;2023-03-24T06:43:42;4.82;;;4.40;;
24813;SDS011;12904;50.088;11.414;2023-03-24T06:46:08;8.45;;;5.25;;
24813;SDS011;12904;50.088;11.414;2023-03-24T06:48:34;4.82;;;4.32;;
24813;SDS011;12904;50.088;11.414;2023-03-24T06:51:00;5.00;;;4.47;;
24813;SDS011;12904;50.088;11.414;2023-03-24T06:53:26;6.55;;;4.50;;
24813;SDS011;12904;50.088;11.414;2023-03-24T06:55:52;5.90;;;4.40;;
24813;SDS011;12904;50.088;11.414;2023-03-24T06:58:18;5.53;;;4.13;;
24813;SDS011;12904;50.088;11.414;2023-03-24T07:00:43;4.05;;;3.65;;
24813;SDS011;12904;50.088;11.414;2023-03-24T07:03:10;4.13;;;3.63;;
24813;SDS011;12904;50.088;11.414;2023-03-24T07:05:42;4.38;;;3.78;;
24813;SDS011;12904;50.088;11.414;2023-03-24T07:08:09;5.53;;;3.40;;
24813;SDS011;12904;50.088;11.414;2023-03-24T07:10:36;7.35;;;3.47;;
24813;SDS011;12904;50.088;11.414;2023-03-24T07:13:04;3.97;;;3.17;;
24813;SDS011;12904;50.088;11.414;2023-03-24T07:15:31;5.60;;;3.10;;
24813;SDS011;12904;50.088;11.414;2023-03-24T07:17:56;7.68;;;3.67;;
24813;SDS011;12904;50.088;11.414;2023-03-24T07:20:22;3.30;;;3.00;;
24813;SDS011;12904;50.088;11.414;2023-03-24T07:22:48;3.83;;;3.47;;
24813;SDS011;12904;50.088;11.414;2023-03-24T07:25:13;3.47;;;3.15;;
24813;SDS011;12904;50.088;11.414;2023-03-24T07:27:44;5.90;;;3.57;;
24813;SDS011;12904;50.088;11.414;2023-03-24T07:30:10;5.63;;;4.38;;
24813;SDS011;12904;50.088;11.414;2023-03-24T07:32:37;5.15;;;3.78;;
24813;SDS011;12904;50.088;11.414;2023-03-24T07:35:06;6.78;;;3.28;;
24813;SDS011;12904;50.088;11.414;2023-03-24T07:37:34;3.88;;;3.08;;
24813;SDS011;12904;50.088;11.414;2023-03-24T07:40:01;4.35;;;3.15;;
24813;SDS011;12904;50.088;11.414;2023-03-24T07:42:30;5.18;;;2.33;;
24813;SDS011;12904;50.088;11.414;2023-03-24T07:44:56;2.65;;;2.45;;
24813;SDS011;12904;50.088;11.414;2023-03-24T07:47:21;2.65;;;2.28;;
24813;SDS011;12904;50.088;11.414;2023-03-24T07:49:47;3.20;;;2.22;;
24813;SDS011;12904;50.088;11.414;2023-03-24T07:52:12;2.95;;;2.55;;
24813;SDS011;12904;50.088;11.414;2023-03-24T07:54:38;3.97;;;2.33;;
24813;SDS011;12904;50.088;11.414;2023-03-24T07:57:04;2.95;;;2.65;;
24813;SDS011;12904;50.088;11.414;2023-03-24T07:59:29;3.17;;;2.63;;
24813;SDS011;12904;50.088;11.414;2023-03-24T08:01:55;2.47;;;2.28;;
24813;SDS011;12904;50.088;11.414;2023-03-24T08:04:21;3.05;;;2.75;;
24813;SDS011;12904;50.088;11.414;2023-03-24T08:06:46;2.80;;;2.20;;
24813;SDS011;12904;50.088;11.414;2023-03-24T08:09:12;3.95;;;2.60;;
24813;SDS011;12904;50.088;11.414;2023-03-24T08:11:38;3.78;;;2.90;;
24813;SDS011;12904;50.088;11.414;2023-03-24T08:14:04;3.53;;;2.88;;
24813;SDS011;12904;50.088;11.414;2023-03-24T08:16:30;2.30;;;1.98;;
24813;SDS011;12904;50.088;11.414;2023-03-24T08:18:55;2.50;;;2.10;;
24813;SDS011;12904;50.088;11.414;2023-03-24T08:21:22;3.13;;;2.28;;
24813;SDS011;12904;50.088;11.414;2023-03-24T08:23:49;2.45;;;1.75;;
24813;SDS011;12904;50.088;11.414;2023-03-24T08:26:15;2.38;;;2.13;;
24813;SDS011;12904;50.088;11.414;2023-03-24T08:28:41;3.20;;;1.83;;
24813;SDS011;12904;50.088;11.414;2023-03-24T08:31:07;2.97;;;1.95;;
24813;SDS011;12904;50.088;11.414;2023-03-24T08:33:33;2.60;;;2.20;;
24813;SDS011;12904;50.088;11.414;2023-03-24T08:35:59;1.77;;;1.67;;
24813;SDS011;12904;50.088;11.414;2023-03-24T08:38:25;2.35;;;1.95;;
24813;SDS011;12904;50.088;11.414;2023-03-24T08:40:54;2.78;;;1.67;;
24813;SDS011;12904;50.088;11.414;2023-03-24T08:43:22;2.63;;;1.58;;
24813;SDS011;12904;50.088;11.414;2023-03-24T08:45:49;1.70;;;1.38;;
24813;SDS011;12904;50.088;11.414;2023-03-24T08:48:15;3.55;;;1.60;;
24813;SDS011;12904;50.088;11.414;2023-03-24T08:50:41;2.08;;;1.83;;
24813;SDS011;12904;50.088;11.414;2023-03-24T08:53:07;3.40;;;1.70;;
24813;SDS011;12904;50.088;11.414;2023-03-24T08:55:35;4.72;;;1.60;;
24813;SDS011;12904;50.088;11.414;2023-03-24T08:58:05;2.45;;;2.20;;
24813;SDS011;12904;50.088;11.414;2023-03-24T09:00:31;1.58;;;1.45;;
24813;SDS011;12904;50.088;11.414;2023-03-24T09:02:57;1.75;;;1.65;;
24813;SDS011;12904;50.088;11.414;2023-03-24T09:05:25;1.70;;;1.50;;
24813;SDS011;12904;50.088;11.414;2023-03-24T09:07:51;1.33;;;1.00;;
24813;SDS011;12904;50.088;11.414;2023-03-24T09:10:17;1.73;;;1.38;;
24813;SDS011;12904;50.088;11.414;2023-03-24T09:12:44;1.73;;;1.15;;
24813;SDS011;12904;50.088;11.414;2023-03-24T09:15:11;1.20;;;1.10;;
24813;SDS011;12904;50.088;11.414;2023-03-24T09:17:37;1.35;;;1.20;;
24813;SDS011;12904;50.088;11.414;2023-03-24T09:20:04;1.05;;;0.90;;
24813;SDS011;12904;50.088;11.414;2023-03-24T09:22:36;1.10;;;1.00;;
24813;SDS011;12904;50.088;11.414;2023-03-24T09:25:02;1.63;;;1.15;;
24813;SDS011;12904;50.088;11.414;2023-03-24T09:27:29;1.42;;;1.30;;
24813;SDS011;12904;50.088;11.414;2023-03-24T09:29:55;1.58;;;1.30;;
24813;SDS011;12904;50.088;11.414;2023-03-24T09:32:21;2.10;;;1.17;;
24813;SDS011;12904;50.088;11.414;2023-03-24T09:34:46;1.45;;;1.33;;
24813;SDS011;12904;50.088;11.414;2023-03-24T09:37:12;1.60;;;1.42;;
24813;SDS011;12904;50.088;11.414;2023-03-24T09:39:38;1.67;;;1.58;;
24813;SDS011;12904;50.088;11.414;2023-03-24T09:42:04;1.60;;;1.30;;
24813;SDS011;12904;50.088;11.414;2023-03-24T09:52:06;2.17;;;1.60;;
24813;SDS011;12904;50.088;11.414;2023-03-24T09:54:53;1.75;;;1.50;;
24813;SDS011;12904;50.088;11.414;2023-03-24T09:57:27;1.70;;;1.60;;
24813;SDS011;12904;50.088;11.414;2023-03-24T10:00:01;1.60;;;1.50;;
24813;SDS011;12904;50.088;11.414;2023-03-24T10:02:34;1.77;;;1.50;;
24813;SDS011;12904;50.088;11.414;2023-03-24T10:05:00;2.25;;;1.40;;
24813;SDS011;12904;50.088;11.414;2023-03-24T10:08:01;1.70;;;1.60;;
24813;SDS011;12904;50.088;11.414;2023-03-24T10:13:55;2.85;;;1.50;;
24813;SDS011;12904;50.088;11.414;2023-03-24T10:22:33;4.75;;;2.17;;
24813;SDS011;12904;50.088;11.414;2023-03-24T10:25:26;2.85;;;2.00;;
24813;SDS011;12904;50.088;11.414;2023-03-24T10:28:18;2.03;;;1.92;;
24813;SDS011;12904;50.088;11.414;2023-03-24T10:30:48;2.72;;;2.38;;
24813;SDS011;12904;50.088;11.414;2023-03-24T10:33:15;2.45;;;2.25;;
24813;SDS011;12904;50.088;11.414;2023-03-24T10:35:43;2.35;;;2.00;;
24813;SDS011;12904;50.088;11.414;2023-03-24T10:38:18;2.55;;;2.10;;
24813;SDS011;12904;50.088;11.414;2023-03-24T10:40:45;2.95;;;2.00;;
24813;SDS011;12904;50.088;11.414;2023-03-24T10:43:11;2.28;;;1.80;;
24813;SDS011;12904;50.088;11.414;2023-03-24T10:45:39;2.38;;;2.17;;
24813;SDS011;12904;50.088;11.414;2023-03-24T10:48:08;2.25;;;2.05;;
24813;SDS011;12904;50.088;11.414;2023-03-24T10:50:39;1.90;;;1.40;;
24813;SDS011;12904;50.088;11.414;2023-03-24T10:53:17;1.67;;;1.52;;
24813;SDS011;12904;50.088;11.414;2023-03-24T10:55:44;2.15;;;1.55;;
24813;SDS011;12904;50.088;11.414;2023-03-24T10:58:16;1.70;;;1.60;;
24813;SDS011;12904;50.088;11.414;2023-03-24T11:00:44;1.60;;;1.50;;
24813;SDS011;12904;50.088;11.414;2023-03-24T11:03:11;4.47;;;1.90;;
24813;SDS011;12904;50.088;11.414;2023-03-24T11:05:41;3.57;;;1.80;;
24813;SDS011;12904;50.088;11.414;2023-03-24T11:10:46;1.90;;;1.58;;
24813;SDS011;12904;50.088;11.414;2023-03-24T11:13:16;1.33;;;1.20;;
24813;SDS011;12904;50.088;11.414;2023-03-24T11:18:57;1.52;;;1.30;;
24813;SDS011;12904;50.088;11.414;2023-03-24T11:21:29;1.48;;;1.25;;
24813;SDS011;12904;50.088;11.414;2023-03-24T11:24:10;1.60;;;1.23;;
24813;SDS011;12904;50.088;11.414;2023-03-24T11:26:38;1.42;;;1.33;;
24813;SDS011;12904;50.088;11.414;2023-03-24T11:29:12;1.50;;;1.40;;
24813;SDS011;12904;50.088;11.414;2023-03-24T11:31:41;1.40;;;1.30;;
24813;SDS011;12904;50.088;11.414;2023-03-24T11:34:18;1.40;;;1.30;;
24813;SDS011;12904;50.088;11.414;2023-03-24T11:36:56;3.17;;;1.77;;
24813;SDS011;12904;50.088;11.414;2023-03-24T11:39:36;1.63;;;1.48;;
24813;SDS011;12904;50.088;11.414;2023-03-24T11:52:45;1.77;;;1.50;;
24813;SDS011;12904;50.088;11.414;2023-03-24T11:55:47;1.90;;;1.20;;
24813;SDS011;12904;50.088;11.414;2023-03-24T11:58:30;1.77;;;1.42;;
24813;SDS011;12904;50.088;11.414;2023-03-24T12:01:03;2.15;;;1.13;;
24813;SDS011;12904;50.088;11.414;2023-03-24T12:13:00;1.10;;;1.00;;
24813;SDS011;12904;50.088;11.414;2023-03-24T12:26:04;1.40;;;1.02;;
24813;SDS011;12904;50.088;11.414;2023-03-24T12:34:10;2.15;;;1.40;;
24813;SDS011;12904;50.088;11.414;2023-03-24T12:39:19;2.22;;;1.50;;
24813;SDS011;12904;50.088;11.414;2023-03-24T12:42:12;2.47;;;1.38;;
24813;SDS011;12904;50.088;11.414;2023-03-24T12:50:23;2.03;;;1.40;;
24813;SDS011;12904;50.088;11.414;2023-03-24T12:56:03;2.20;;;1.55;;
24813;SDS011;12904;50.088;11.414;2023-03-24T12:58:37;1.77;;;1.67;;
24813;SDS011;12904;50.088;11.414;2023-03-24T13:01:09;3.58;;;1.50;;
24813;SDS011;12904;50.088;11.414;2023-03-24T13:06:47;4.63;;;2.17;;
24813;SDS011;12904;50.088;11.414;2023-03-24T13:13:07;2.20;;;1.55;;
24813;SDS011;12904;50.088;11.414;2023-03-24T13:15:59;2.72;;;1.20;;
24813;SDS011;12904;50.088;11.414;2023-03-24T13:18:45;2.05;;;0.95;;
24813;SDS011;12904;50.088;11.414;2023-03-24T13:21:18;0.47;;;0.32;;
24813;SDS011;12904;50.088;11.414;2023-03-24T13:23:47;0.60;;;0.50;;
24813;SDS011;12904;50.088;11.414;2023-03-24T13:34:41;1.35;;;0.82;;
24813;SDS011;12904;50.088;11.414;2023-03-24T13:37:17;1.10;;;1.00;;
24813;SDS011;12904;50.088;11.414;2023-03-24T13:39:49;4.30;;;0.80;;
24813;SDS011;12904;50.088;11.414;2023-03-24T13:44:55;0.73;;;0.63;;
24813;SDS011;12904;50.088;11.414;2023-03-24T13:47:27;1.27;;;0.70;;
24813;SDS011;12904;50.088;11.414;2023-03-24T13:51:00;1.10;;;0.70;;
24813;SDS011;12904;50.088;11.414;2023-03-24T13:56:03;1.98;;;0.80;;
24813;SDS011;12904;50.088;11.414;2023-03-24T14:01:36;3.30;;;1.40;;
24813;SDS011;12904;50.088;11.414;2023-03-24T14:06:46;0.90;;;0.50;;
24813;SDS011;12904;50.088;11.414;2023-03-24T14:09:17;1.38;;;1.00;;
24813;SDS011;12904;50.088;11.414;2023-03-24T14:14:21;4.82;;;2.97;;
24813;SDS011;12904;50.088;11.414;2023-03-24T14:17:21;2.80;;;1.67;;
24813;SDS011;12904;50.088;11.414;2023-03-24T14:19:40;8.50;;;7.03;;
24813;SDS011;12904;50.088;11.414;2023-03-24T14:22:26;0.75;;;0.75;;
24813;SDS011;12904;50.088;11.414;2023-03-24T14:27:36;1.02;;;0.63;;
24813;SDS011;12904;50.088;11.414;2023-03-24T14:32:57;2.60;;;0.60;;
24813;SDS011;12904;50.088;11.414;2023-03-24T14:35:25;0.50;;;0.50;;
24813;SDS011;12904;50.088;11.414;2023-03-24T14:38:17;1.02;;;0.70;;
24813;SDS011;12904;50.088;11.414;2023-03-24T14:40:48;1.42;;;0.52;;
24813;SDS011;12904;50.088;11.414;2023-03-24T14:46:02;1.70;;;1.13;;
24813;SDS011;12904;50.088;11.414;2023-03-24T14:48:31;2.50;;;1.27;;
24813;SDS011;12904;50.088;11.414;2023-03-24T14:50:58;4.13;;;1.55;;
24813;SDS011;12904;50.088;11.414;2023-03-24T14:53:30;1.50;;;0.95;;
24813;SDS011;12904;50.088;11.414;2023-03-24T14:56:02;1.83;;;0.60;;
24813;SDS011;12904;50.088;11.414;2023-03-24T14:58:29;1.35;;;0.73;;
24813;SDS011;12904;50.088;11.414;2023-03-24T15:01:00;1.55;;;0.80;;
24813;SDS011;12904;50.088;11.414;2023-03-24T15:06:41;1.00;;;0.75;;
24813;SDS011;12904;50.088;11.414;2023-03-24T15:09:10;1.45;;;0.70;;
24813;SDS011;12904;50.088;11.414;2023-03-24T15:11:39;2.50;;;0.70;;
24813;SDS011;12904;50.088;11.414;2023-03-24T15:14:14;1.30;;;0.60;;
24813;SDS011;12904;50.088;11.414;2023-03-24T15:16:50;1.58;;;0.77;;
24813;SDS011;12904;50.088;11.414;2023-03-24T15:19:22;3.13;;;0.73;;
24813;SDS011;12904;50.088;11.414;2023-03-24T15:22:00;1.23;;;0.70;;
24813;SDS011;12904;50.088;11.414;2023-03-24T15:24:28;1.52;;;0.75;;
24813;SDS011;12904;50.088;11.414;2023-03-24T15:29:31;0.73;;;0.73;;
24813;SDS011;12904;50.088;11.414;2023-03-24T15:32:02;0.60;;;0.50;;
24813;SDS011;12904;50.088;11.414;2023-03-24T15:34:29;2.03;;;0.70;;
24813;SDS011;12904;50.088;11.414;2023-03-24T15:37:06;0.68;;;0.52;;
24813;SDS011;12904;50.088;11.414;2023-03-24T15:39:55;2.95;;;0.60;;
24813;SDS011;12904;50.088;11.414;2023-03-24T15:42:21;2.83;;;0.70;;
24813;SDS011;12904;50.088;11.414;2023-03-24T15:44:48;1.13;;;0.70;;
24813;SDS011;12904;50.088;11.414;2023-03-24T15:49:53;1.90;;;0.77;;
24813;SDS011;12904;50.088;11.414;2023-03-24T15:52:34;2.08;;;0.70;;
24813;SDS011;12904;50.088;11.414;2023-03-24T15:55:15;1.25;;;0.80;;
24813;SDS011;12904;50.088;11.414;2023-03-24T15:57:59;1.67;;;0.63;;
24813;SDS011;12904;50.088;11.414;2023-03-24T16:00:35;1.23;;;0.88;;
24813;SDS011;12904;50.088;11.414;2023-03-24T16:03:05;1.48;;;0.60;;
24813;SDS011;12904;50.088;11.414;2023-03-24T16:05:31;1.50;;;0.82;;
24813;SDS011;12904;50.088;11.414;2023-03-24T16:13:19;4.65;;;0.80;;
24813;SDS011;12904;50.088;11.414;2023-03-24T16:15:46;1.52;;;0.70;;
24813;SDS011;12904;50.088;11.414;2023-03-24T16:18:21;2.83;;;0.90;;
24813;SDS011;12904;50.088;11.414;2023-03-24T16:20:53;1.60;;;0.70;;
24813;SDS011;12904;50.088;11.414;2023-03-24T16:23:18;1.30;;;0.80;;
24813;SDS011;12904;50.088;11.414;2023-03-24T16:25:44;2.10;;;1.08;;
24813;SDS011;12904;50.088;11.414;2023-03-24T16:28:17;3.97;;;0.90;;
24813;SDS011;12904;50.088;11.414;2023-03-24T16:30:44;2.88;;;1.13;;
24813;SDS011;12904;50.088;11.414;2023-03-24T16:33:13;2.33;;;1.15;;
24813;SDS011;12904;50.088;11.414;2023-03-24T16:35:40;2.90;;;1.10;;
24813;SDS011;12904;50.088;11.414;2023-03-24T16:38:07;3.10;;;1.00;;
24813;SDS011;12904;50.088;11.414;2023-03-24T16:40:38;3.40;;;1.10;;
24813;SDS011;12904;50.088;11.414;2023-03-24T16:43:07;1.77;;;0.82;;
24813;SDS011;12904;50.088;11.414;2023-03-24T16:45:33;2.67;;;1.00;;
24813;SDS011;12904;50.088;11.414;2023-03-24T16:47:59;2.00;;;0.95;;
24813;SDS011;12904;50.088;11.414;2023-03-24T16:50:32;1.65;;;1.02;;
24813;SDS011;12904;50.088;11.414;2023-03-24T16:53:01;2.33;;;1.23;;
24813;SDS011;12904;50.088;11.414;2023-03-24T16:55:28;1.92;;;1.10;;
24813;SDS011;12904;50.088;11.414;2023-03-24T16:57:55;2.08;;;1.10;;
24813;SDS011;12904;50.088;11.414;2023-03-24T17:00:21;1.27;;;0.90;;
24813;SDS011;12904;50.088;11.414;2023-03-24T17:02:47;1.00;;;0.70;;
24813;SDS011;12904;50.088;11.414;2023-03-24T17:07:49;0.85;;;0.70;;
24813;SDS011;12904;50.088;11.414;2023-03-24T17:10:16;1.70;;;0.95;;
24813;SDS011;12904;50.088;11.414;2023-03-24T17:12:42;2.50;;;1.48;;
24813;SDS011;12904;50.088;11.414;2023-03-24T17:15:12;4.43;;;1.90;;
24813;SDS011;12904;50.088;11.414;2023-03-24T17:17:44;5.57;;;1.73;;
24813;SDS011;12904;50.088;11.414;2023-03-24T17:20:10;4.22;;;1.77;;
24813;SDS011;12904;50.088;11.414;2023-03-24T17:22:35;4.15;;;1.45;;
24813;SDS011;12904;50.088;11.414;2023-03-24T17:25:01;3.10;;;1.00;;
24813;SDS011;12904;50.088;11.414;2023-03-24T17:27:28;2.17;;;0.80;;
24813;SDS011;12904;50.088;11.414;2023-03-24T17:29:54;2.70;;;0.93;;
24813;SDS011;12904;50.088;11.414;2023-03-24T17:32:20;1.90;;;0.98;;
24813;SDS011;12904;50.088;11.414;2023-03-24T17:34:50;1.90;;;1.10;;
24813;SDS011;12904;50.088;11.414;2023-03-24T17:37:16;3.47;;;0.90;;
24813;SDS011;12904;50.088;11.414;2023-03-24T17:39:42;3.47;;;1.13;;
24813;SDS011;12904;50.088;11.414;2023-03-24T17:42:08;2.00;;;1.00;;
24813;SDS011;12904;50.088;11.414;2023-03-24T17:44:33;7.65;;;1.10;;
24813;SDS011;12904;50.088;11.414;2023-03-24T17:46:59;1.75;;;0.90;;